sensor_id;sensor_type;location;lat;lon;timestamp;temperature;humidity
4811;DHT22;2419;51.276;6.472;2022-12-29T00:01:01;11.70;99.90
4811;DHT22;2419;51.276;6.472;2022-12-29T00:03:29;11.70;99.90
4811;DHT22;2419;51.276;6.472;2022-12-29T00:05:57;11.70;99.90
4811;DHT22;2419;51.276;6.472;2022-12-29T00:08:25;11.70;99.90
4811;DHT22;2419;51.276;6.472;2022-12-29T00:11:06;11.80;99.90
4811;DHT22;2419;51.276;6.472;2022-12-29T00:13:35;11.70;99.90
4811;DHT22;2419;51.276;6.472;2022-12-29T00:16:22;11.80;99.90
4811;DHT22;2419;51.276;6.472;2022-12-29T00:18:50;11.80;99.90
4811;DHT22;2419;51.276;6.472;2022-12-29T00:21:20;11.80;99.90
4811;DHT22;2419;51.276;6.472;2022-12-29T00:24:08;11.70;99.90
4811;DHT22;2419;51.276;6.472;2022-12-29T00:26:58;11.80;99.90
4811;DHT22;2419;51.276;6.472;2022-12-29T00:29:45;11.70;99.90
4811;DHT22;2419;51.276;6.472;2022-12-29T00:32:34;11.60;99.90
4811;DHT22;2419;51.276;6.472;2022-12-29T00:35:26;11.40;99.90
4811;DHT22;2419;51.276;6.472;2022-12-29T00:37:58;11.30;99.90
4811;DHT22;2419;51.276;6.472;2022-12-29T00:40:44;11.20;99.90
4811;DHT22;2419;51.276;6.472;2022-12-29T00:43:29;11.20;99.90
4811;DHT22;2419;51.276;6.472;2022-12-29T00:46:17;11.30;99.90
4811;DHT22;2419;51.276;6.472;2022-12-29T00:48:47;11.40;99.90
4811;DHT22;2419;51.276;6.472;2022-12-29T00:51:33;11.50;99.90
4811;DHT22;2419;51.276;6.472;2022-12-29T00:54:01;11.60;99.90
4811;DHT22;2419;51.276;6.472;2022-12-29T00:56:29;11.80;99.90
4811;DHT22;2419;51.276;6.472;2022-12-29T00:59:00;11.90;99.90
4811;DHT22;2419;51.276;6.472;2022-12-29T01:01:28;11.80;99.90
4811;DHT22;2419;51.276;6.472;2022-12-29T01:03:58;12.00;99.90
4811;DHT22;2419;51.276;6.472;2022-12-29T01:06:30;12.00;99.90
4811;DHT22;2419;51.276;6.472;2022-12-29T01:08:58;12.00;99.90
4811;DHT22;2419;51.276;6.472;2022-12-29T01:11:44;12.00;99.90
4811;DHT22;2419;51.276;6.472;2022-12-29T01:14:13;12.10;99.90
4811;DHT22;2419;51.276;6.472;2022-12-29T01:16:41;12.00;99.90
4811;DHT22;2419;51.276;6.472;2022-12-29T01:19:11;12.00;99.90
4811;DHT22;2419;51.276;6.472;2022-12-29T01:21:39;12.10;99.90
4811;DHT22;2419;51.276;6.472;2022-12-29T01:24:08;12.20;99.90
4811;DHT22;2419;51.276;6.472;2022-12-29T01:26:37;12.20;99.90
4811;DHT22;2419;51.276;6.472;2022-12-29T01:29:05;12.20;99.90
4811;DHT22;2419;51.276;6.472;2022-12-29T01:31:33;12.10;99.90
4811;DHT22;2419;51.276;6.472;2022-12-29T01:34:01;12.20;99.90
4811;DHT22;2419;51.276;6.472;2022-12-29T01:36:30;12.10;99.90
4811;DHT22;2419;51.276;6.472;2022-12-29T01:38:58;12.20;99.90
4811;DHT22;2419;51.276;6.472;2022-12-29T01:41:27;12.10;99.90
4811;DHT22;2419;51.276;6.472;2022-12-29T01:43:57;12.10;99.90
4811;DHT22;2419;51.276;6.472;2022-12-29T01:46:28;12.10;99.90
4811;DHT22;2419;51.276;6.472;2022-12-29T01:49:04;12.00;99.90
4811;DHT22;2419;51.276;6.472;2022-12-29T01:51:37;12.10;99.90
4811;DHT22;2419;51.276;6.472;2022-12-29T01:54:09;12.00;99.90
4811;DHT22;2419;51.276;6.472;2022-12-29T01:56:38;12.00;99.90
4811;DHT22;2419;51.276;6.472;2022-12-29T01:59:10;12.20;99.90
4811;DHT22;2419;51.276;6.472;2022-12-29T02:01:40;12.10;99.90
4811;DHT22;2419;51.276;6.472;2022-12-29T02:04:11;12.00;99.90
4811;DHT22;2419;51.276;6.472;2022-12-29T02:06:43;12.00;99.90
4811;DHT22;2419;51.276;6.472;2022-12-29T02:09:14;12.00;99.90
4811;DHT22;2419;51.276;6.472;2022-12-29T02:11:44;12.00;99.90
4811;DHT22;2419;51.276;6.472;2022-12-29T02:14:17;12.00;99.90
4811;DHT22;2419;51.276;6.472;2022-12-29T02:16:57;12.00;99.90
4811;DHT22;2419;51.276;6.472;2022-12-29T02:19:55;12.00;99.90
4811;DHT22;2419;51.276;6.472;2022-12-29T02:22:34;12.10;99.90
4811;DHT22;2419;51.276;6.472;2022-12-29T02:25:37;12.10;99.90
4811;DHT22;2419;51.276;6.472;2022-12-29T02:28:41;12.10;99.90
4811;DHT22;2419;51.276;6.472;2022-12-29T02:31:20;12.00;99.90
4811;DHT22;2419;51.276;6.472;2022-12-29T02:34:01;12.10;99.90
4811;DHT22;2419;51.276;6.472;2022-12-29T02:36:40;12.00;99.90
4811;DHT22;2419;51.276;6.472;2022-12-29T02:39:18;12.00;99.90
4811;DHT22;2419;51.276;6.472;2022-12-29T02:41:57;12.00;99.90
4811;DHT22;2419;51.276;6.472;2022-12-29T02:44:34;12.10;99.90
4811;DHT22;2419;51.276;6.472;2022-12-29T02:47:11;12.10;99.90
4811;DHT22;2419;51.276;6.472;2022-12-29T02:49:48;12.20;99.90
4811;DHT22;2419;51.276;6.472;2022-12-29T02:52:22;12.30;99.90
4811;DHT22;2419;51.276;6.472;2022-12-29T02:54:53;12.10;99.90
4811;DHT22;2419;51.276;6.472;2022-12-29T02:57:30;12.20;99.90
4811;DHT22;2419;51.276;6.472;2022-12-29T03:00:04;12.10;99.90
4811;DHT22;2419;51.276;6.472;2022-12-29T03:02:57;12.10;99.90
4811;DHT22;2419;51.276;6.472;2022-12-29T03:05:41;12.10;99.90
4811;DHT22;2419;51.276;6.472;2022-12-29T03:08:20;12.10;99.90
4811;DHT22;2419;51.276;6.472;2022-12-29T03:10:58;12.10;99.90
4811;DHT22;2419;51.276;6.472;2022-12-29T03:13:33;12.10;99.90
4811;DHT22;2419;51.276;6.472;2022-12-29T03:16:23;12.10;99.90
4811;DHT22;2419;51.276;6.472;2022-12-29T03:19:00;12.20;99.90
4811;DHT22;2419;51.276;6.472;2022-12-29T03:21:33;12.10;99.90
4811;DHT22;2419;51.276;6.472;2022-12-29T03:24:24;12.10;99.90
4811;DHT22;2419;51.276;6.472;2022-12-29T03:26:56;12.10;99.90
4811;DHT22;2419;51.276;6.472;2022-12-29T03:29:32;12.00;99.90
4811;DHT22;2419;51.276;6.472;2022-12-29T03:32:01;12.00;99.90
4811;DHT22;2419;51.276;6.472;2022-12-29T03:34:33;11.90;99.90
4811;DHT22;2419;51.276;6.472;2022-12-29T03:37:06;12.00;99.90
4811;DHT22;2419;51.276;6.472;2022-12-29T03:39:36;12.00;99.90
4811;DHT22;2419;51.276;6.472;2022-12-29T03:42:06;12.00;99.90
4811;DHT22;2419;51.276;6.472;2022-12-29T03:44:38;12.00;99.90
4811;DHT22;2419;51.276;6.472;2022-12-29T03:47:10;12.00;99.90
4811;DHT22;2419;51.276;6.472;2022-12-29T03:49:40;12.00;99.90
4811;DHT22;2419;51.276;6.472;2022-12-29T03:52:08;12.00;99.90
4811;DHT22;2419;51.276;6.472;2022-12-29T03:54:41;12.00;99.90
4811;DHT22;2419;51.276;6.472;2022-12-29T03:57:10;12.00;99.90
4811;DHT22;2419;51.276;6.472;2022-12-29T03:59:49;12.00;99.90
4811;DHT22;2419;51.276;6.472;2022-12-29T04:02:17;12.10;99.90
4811;DHT22;2419;51.276;6.472;2022-12-29T04:04:47;12.00;99.90
4811;DHT22;2419;51.276;6.472;2022-12-29T04:07:15;12.10;99.90
4811;DHT22;2419;51.276;6.472;2022-12-29T04:09:43;12.20;99.90
4811;DHT22;2419;51.276;6.472;2022-12-29T04:12:17;12.30;99.90
4811;DHT22;2419;51.276;6.472;2022-12-29T04:14:46;12.30;99.90
4811;DHT22;2419;51.276;6.472;2022-12-29T04:17:14;12.30;99.90
4811;DHT22;2419;51.276;6.472;2022-12-29T04:19:46;12.20;99.90
4811;DHT22;2419;51.276;6.472;2022-12-29T04:22:14;12.20;99.90
4811;DHT22;2419;51.276;6.472;2022-12-29T04:24:41;12.30;99.90
4811;DHT22;2419;51.276;6.472;2022-12-29T04:27:11;12.30;99.90
4811;DHT22;2419;51.276;6.472;2022-12-29T04:30:07;12.30;99.90
4811;DHT22;2419;51.276;6.472;2022-12-29T04:32:48;12.30;99.90
4811;DHT22;2419;51.276;6.472;2022-12-29T04:35:21;12.20;99.90
4811;DHT22;2419;51.276;6.472;2022-12-29T04:37:50;12.20;99.90
4811;DHT22;2419;51.276;6.472;2022-12-29T04:40:18;12.20;99.90
4811;DHT22;2419;51.276;6.472;2022-12-29T04:42:46;12.20;99.90
4811;DHT22;2419;51.276;6.472;2022-12-29T04:45:14;12.30;99.90
4811;DHT22;2419;51.276;6.472;2022-12-29T04:47:51;12.40;99.90
4811;DHT22;2419;51.276;6.472;2022-12-29T04:50:40;12.30;99.90
4811;DHT22;2419;51.276;6.472;2022-12-29T04:53:18;12.30;99.90
4811;DHT22;2419;51.276;6.472;2022-12-29T04:55:49;12.30;99.90
4811;DHT22;2419;51.276;6.472;2022-12-29T04:58:17;12.20;99.90
4811;DHT22;2419;51.276;6.472;2022-12-29T05:00:49;12.20;99.90
4811;DHT22;2419;51.276;6.472;2022-12-29T05:03:19;12.30;99.90
4811;DHT22;2419;51.276;6.472;2022-12-29T05:05:52;12.30;99.90
4811;DHT22;2419;51.276;6.472;2022-12-29T05:08:20;12.40;99.90
4811;DHT22;2419;51.276;6.472;2022-12-29T05:10:55;12.30;99.90
4811;DHT22;2419;51.276;6.472;2022-12-29T05:13:23;12.20;99.90
4811;DHT22;2419;51.276;6.472;2022-12-29T05:15:52;12.00;99.90
4811;DHT22;2419;51.276;6.472;2022-12-29T05:18:22;11.70;99.90
4811;DHT22;2419;51.276;6.472;2022-12-29T05:20:52;11.40;99.90
4811;DHT22;2419;51.276;6.472;2022-12-29T05:23:22;11.20;99.90
4811;DHT22;2419;51.276;6.472;2022-12-29T05:25:55;11.10;99.90
4811;DHT22;2419;51.276;6.472;2022-12-29T05:28:58;10.90;99.90
4811;DHT22;2419;51.276;6.472;2022-12-29T05:31:27;10.90;99.90
4811;DHT22;2419;51.276;6.472;2022-12-29T05:33:55;10.90;99.90
4811;DHT22;2419;51.276;6.472;2022-12-29T05:36:24;10.80;99.90
4811;DHT22;2419;51.276;6.472;2022-12-29T05:38:57;10.80;99.90
4811;DHT22;2419;51.276;6.472;2022-12-29T05:41:25;10.70;99.90
4811;DHT22;2419;51.276;6.472;2022-12-29T05:44:13;10.70;99.90
4811;DHT22;2419;51.276;6.472;2022-12-29T05:47:13;10.70;99.90
4811;DHT22;2419;51.276;6.472;2022-12-29T05:50:04;10.70;99.90
4811;DHT22;2419;51.276;6.472;2022-12-29T05:52:53;10.70;99.90
4811;DHT22;2419;51.276;6.472;2022-12-29T05:55:21;10.60;99.90
4811;DHT22;2419;51.276;6.472;2022-12-29T05:57:52;10.70;99.90
4811;DHT22;2419;51.276;6.472;2022-12-29T06:00:20;10.80;99.90
4811;DHT22;2419;51.276;6.472;2022-12-29T06:02:48;10.80;99.90
4811;DHT22;2419;51.276;6.472;2022-12-29T06:05:17;11.00;99.90
4811;DHT22;2419;51.276;6.472;2022-12-29T06:07:45;11.00;99.90
4811;DHT22;2419;51.276;6.472;2022-12-29T06:10:17;11.00;99.90
4811;DHT22;2419;51.276;6.472;2022-12-29T06:12:59;11.10;99.90
4811;DHT22;2419;51.276;6.472;2022-12-29T06:15:30;11.20;99.90
4811;DHT22;2419;51.276;6.472;2022-12-29T06:17:58;11.30;99.90
4811;DHT22;2419;51.276;6.472;2022-12-29T06:20:26;11.40;99.90
4811;DHT22;2419;51.276;6.472;2022-12-29T06:22:54;11.40;99.90
4811;DHT22;2419;51.276;6.472;2022-12-29T06:25:24;11.50;99.90
4811;DHT22;2419;51.276;6.472;2022-12-29T06:27:52;11.50;99.90
4811;DHT22;2419;51.276;6.472;2022-12-29T06:30:20;11.60;99.90
4811;DHT22;2419;51.276;6.472;2022-12-29T06:32:48;11.60;99.90
4811;DHT22;2419;51.276;6.472;2022-12-29T06:35:18;11.60;99.90
4811;DHT22;2419;51.276;6.472;2022-12-29T06:37:49;11.60;99.90
4811;DHT22;2419;51.276;6.472;2022-12-29T06:40:19;11.60;99.90
4811;DHT22;2419;51.276;6.472;2022-12-29T06:43:08;11.60;99.90
4811;DHT22;2419;51.276;6.472;2022-12-29T06:45:39;11.50;99.90
4811;DHT22;2419;51.276;6.472;2022-12-29T06:48:07;11.50;99.90
4811;DHT22;2419;51.276;6.472;2022-12-29T06:50:35;11.50;99.90
4811;DHT22;2419;51.276;6.472;2022-12-29T06:53:04;11.50;99.90
4811;DHT22;2419;51.276;6.472;2022-12-29T06:55:32;11.60;99.90
4811;DHT22;2419;51.276;6.472;2022-12-29T06:58:00;11.60;99.90
4811;DHT22;2419;51.276;6.472;2022-12-29T07:00:30;11.60;99.90
4811;DHT22;2419;51.276;6.472;2022-12-29T07:02:58;11.60;99.90
4811;DHT22;2419;51.276;6.472;2022-12-29T07:05:26;11.60;99.90
4811;DHT22;2419;51.276;6.472;2022-12-29T07:07:55;11.50;99.90
4811;DHT22;2419;51.276;6.472;2022-12-29T07:10:23;11.60;99.90
4811;DHT22;2419;51.276;6.472;2022-12-29T07:12:51;11.50;99.90
4811;DHT22;2419;51.276;6.472;2022-12-29T07:15:19;11.50;99.90
4811;DHT22;2419;51.276;6.472;2022-12-29T07:17:48;11.50;99.90
4811;DHT22;2419;51.276;6.472;2022-12-29T07:20:19;11.50;99.90
4811;DHT22;2419;51.276;6.472;2022-12-29T07:22:52;11.40;99.90
4811;DHT22;2419;51.276;6.472;2022-12-29T07:25:21;11.40;99.90
4811;DHT22;2419;51.276;6.472;2022-12-29T07:27:49;11.30;99.90
4811;DHT22;2419;51.276;6.472;2022-12-29T07:30:17;11.30;99.90
4811;DHT22;2419;51.276;6.472;2022-12-29T07:32:45;11.30;99.90
4811;DHT22;2419;51.276;6.472;2022-12-29T07:35:15;11.30;99.90
4811;DHT22;2419;51.276;6.472;2022-12-29T07:37:43;11.40;99.90
4811;DHT22;2419;51.276;6.472;2022-12-29T07:40:11;11.40;99.90
4811;DHT22;2419;51.276;6.472;2022-12-29T07:42:40;11.40;99.90
4811;DHT22;2419;51.276;6.472;2022-12-29T07:45:09;11.30;99.90
4811;DHT22;2419;51.276;6.472;2022-12-29T07:47:48;11.30;99.90
4811;DHT22;2419;51.276;6.472;2022-12-29T07:50:18;11.30;99.90
4811;DHT22;2419;51.276;6.472;2022-12-29T07:52:46;11.40;99.90
4811;DHT22;2419;51.276;6.472;2022-12-29T07:55:14;11.30;99.90
4811;DHT22;2419;51.276;6.472;2022-12-29T07:57:43;11.30;99.90
4811;DHT22;2419;51.276;6.472;2022-12-29T08:00:12;11.20;99.90
4811;DHT22;2419;51.276;6.472;2022-12-29T08:02:40;11.20;99.90
4811;DHT22;2419;51.276;6.472;2022-12-29T08:05:08;11.30;99.90
4811;DHT22;2419;51.276;6.472;2022-12-29T08:07:38;11.30;99.90
4811;DHT22;2419;51.276;6.472;2022-12-29T08:10:06;11.30;99.90
4811;DHT22;2419;51.276;6.472;2022-12-29T08:12:34;11.20;99.90
4811;DHT22;2419;51.276;6.472;2022-12-29T08:15:03;11.30;99.90
4811;DHT22;2419;51.276;6.472;2022-12-29T08:17:31;11.20;99.90
4811;DHT22;2419;51.276;6.472;2022-12-29T08:20:00;11.20;99.90
4811;DHT22;2419;51.276;6.472;2022-12-29T08:22:28;11.20;99.90
4811;DHT22;2419;51.276;6.472;2022-12-29T08:24:57;11.20;99.90
4811;DHT22;2419;51.276;6.472;2022-12-29T08:27:25;11.20;99.90
4811;DHT22;2419;51.276;6.472;2022-12-29T08:29:54;11.00;99.90
4811;DHT22;2419;51.276;6.472;2022-12-29T08:32:22;10.80;99.90
4811;DHT22;2419;51.276;6.472;2022-12-29T08:34:50;10.80;99.90
4811;DHT22;2419;51.276;6.472;2022-12-29T08:37:18;10.90;99.90
4811;DHT22;2419;51.276;6.472;2022-12-29T08:39:46;10.80;99.90
4811;DHT22;2419;51.276;6.472;2022-12-29T08:42:15;10.80;99.90
4811;DHT22;2419;51.276;6.472;2022-12-29T08:44:43;10.70;99.90
4811;DHT22;2419;51.276;6.472;2022-12-29T08:47:11;10.80;99.90
4811;DHT22;2419;51.276;6.472;2022-12-29T08:49:39;10.80;99.90
4811;DHT22;2419;51.276;6.472;2022-12-29T08:52:07;10.80;99.90
4811;DHT22;2419;51.276;6.472;2022-12-29T08:54:35;10.80;99.90
4811;DHT22;2419;51.276;6.472;2022-12-29T08:57:03;11.90;99.90
4811;DHT22;2419;51.276;6.472;2022-12-29T08:59:39;12.60;99.90
4811;DHT22;2419;51.276;6.472;2022-12-29T09:02:10;12.60;99.90
4811;DHT22;2419;51.276;6.472;2022-12-29T09:04:43;13.10;99.90
4811;DHT22;2419;51.276;6.472;2022-12-29T09:07:11;13.50;99.90
4811;DHT22;2419;51.276;6.472;2022-12-29T09:09:39;12.50;99.90
4811;DHT22;2419;51.276;6.472;2022-12-29T09:12:07;11.80;99.90
4811;DHT22;2419;51.276;6.472;2022-12-29T09:14:35;11.60;99.90
4811;DHT22;2419;51.276;6.472;2022-12-29T09:17:04;11.60;99.90
4811;DHT22;2419;51.276;6.472;2022-12-29T09:19:50;11.60;99.90
4811;DHT22;2419;51.276;6.472;2022-12-29T09:22:18;11.80;99.90
4811;DHT22;2419;51.276;6.472;2022-12-29T09:24:46;11.60;99.90
4811;DHT22;2419;51.276;6.472;2022-12-29T09:27:14;11.50;99.90
4811;DHT22;2419;51.276;6.472;2022-12-29T09:29:42;11.50;99.90
4811;DHT22;2419;51.276;6.472;2022-12-29T09:32:12;11.40;99.90
4811;DHT22;2419;51.276;6.472;2022-12-29T09:34:45;11.40;99.90
4811;DHT22;2419;51.276;6.472;2022-12-29T09:37:13;11.40;99.90
4811;DHT22;2419;51.276;6.472;2022-12-29T09:39:41;11.40;99.90
4811;DHT22;2419;51.276;6.472;2022-12-29T09:42:19;11.40;99.90
4811;DHT22;2419;51.276;6.472;2022-12-29T09:44:56;11.40;99.90
4811;DHT22;2419;51.276;6.472;2022-12-29T09:47:30;11.50;99.90
4811;DHT22;2419;51.276;6.472;2022-12-29T09:50:02;11.40;99.90
4811;DHT22;2419;51.276;6.472;2022-12-29T09:52:32;11.50;99.90
4811;DHT22;2419;51.276;6.472;2022-12-29T09:55:04;11.60;99.90
4811;DHT22;2419;51.276;6.472;2022-12-29T09:57:45;11.90;99.90
4811;DHT22;2419;51.276;6.472;2022-12-29T10:00:16;11.90;99.90
4811;DHT22;2419;51.276;6.472;2022-12-29T10:02:49;12.10;99.90
4811;DHT22;2419;51.276;6.472;2022-12-29T10:05:26;11.80;99.90
4811;DHT22;2419;51.276;6.472;2022-12-29T10:08:02;12.20;99.90
4811;DHT22;2419;51.276;6.472;2022-12-29T10:10:37;11.90;99.90
4811;DHT22;2419;51.276;6.472;2022-12-29T10:13:22;12.10;99.90
4811;DHT22;2419;51.276;6.472;2022-12-29T10:16:01;13.40;99.90
4811;DHT22;2419;51.276;6.472;2022-12-29T10:18:52;13.30;99.90
4811;DHT22;2419;51.276;6.472;2022-12-29T10:21:30;14.00;99.90
4811;DHT22;2419;51.276;6.472;2022-12-29T10:24:03;13.90;99.90
4811;DHT22;2419;51.276;6.472;2022-12-29T10:26:35;14.10;99.90
4811;DHT22;2419;51.276;6.472;2022-12-29T10:29:08;13.20;99.90
4811;DHT22;2419;51.276;6.472;2022-12-29T10:31:43;13.30;99.90
4811;DHT22;2419;51.276;6.472;2022-12-29T10:34:19;13.80;99.90
4811;DHT22;2419;51.276;6.472;2022-12-29T10:36:49;14.20;99.90
4811;DHT22;2419;51.276;6.472;2022-12-29T10:39:23;13.30;99.90
4811;DHT22;2419;51.276;6.472;2022-12-29T10:42:02;12.60;99.90
4811;DHT22;2419;51.276;6.472;2022-12-29T10:44:32;12.70;99.90
4811;DHT22;2419;51.276;6.472;2022-12-29T10:47:04;12.30;99.90
4811;DHT22;2419;51.276;6.472;2022-12-29T10:49:39;12.00;99.90
4811;DHT22;2419;51.276;6.472;2022-12-29T10:52:09;12.00;99.90
4811;DHT22;2419;51.276;6.472;2022-12-29T10:54:43;11.90;99.90
4811;DHT22;2419;51.276;6.472;2022-12-29T10:57:17;12.10;99.90
4811;DHT22;2419;51.276;6.472;2022-12-29T10:59:47;12.40;99.90
4811;DHT22;2419;51.276;6.472;2022-12-29T11:02:39;12.70;99.90
4811;DHT22;2419;51.276;6.472;2022-12-29T11:05:19;12.20;99.90
4811;DHT22;2419;51.276;6.472;2022-12-29T11:07:50;12.10;99.90
4811;DHT22;2419;51.276;6.472;2022-12-29T11:10:30;12.40;99.90
4811;DHT22;2419;51.276;6.472;2022-12-29T11:12:59;12.60;99.90
4811;DHT22;2419;51.276;6.472;2022-12-29T11:15:38;12.10;99.90
4811;DHT22;2419;51.276;6.472;2022-12-29T11:18:18;12.30;99.90
4811;DHT22;2419;51.276;6.472;2022-12-29T11:20:49;12.20;99.90
4811;DHT22;2419;51.276;6.472;2022-12-29T11:23:24;12.40;99.90
4811;DHT22;2419;51.276;6.472;2022-12-29T11:26:16;12.30;99.90
4811;DHT22;2419;51.276;6.472;2022-12-29T11:28:47;12.10;99.90
4811;DHT22;2419;51.276;6.472;2022-12-29T11:31:17;12.10;99.90
4811;DHT22;2419;51.276;6.472;2022-12-29T11:33:45;12.10;99.90
4811;DHT22;2419;51.276;6.472;2022-12-29T11:36:17;12.20;99.90
4811;DHT22;2419;51.276;6.472;2022-12-29T11:38:49;13.20;99.90
4811;DHT22;2419;51.276;6.472;2022-12-29T11:41:23;12.90;99.90
4811;DHT22;2419;51.276;6.472;2022-12-29T11:43:52;12.50;99.90
4811;DHT22;2419;51.276;6.472;2022-12-29T11:46:24;12.10;99.90
4811;DHT22;2419;51.276;6.472;2022-12-29T11:48:54;11.90;99.90
4811;DHT22;2419;51.276;6.472;2022-12-29T11:51:29;11.80;99.90
4811;DHT22;2419;51.276;6.472;2022-12-29T11:53:59;11.80;99.90
4811;DHT22;2419;51.276;6.472;2022-12-29T11:56:35;11.70;99.90
4811;DHT22;2419;51.276;6.472;2022-12-29T11:59:41;11.70;99.90
4811;DHT22;2419;51.276;6.472;2022-12-29T12:02:44;11.70;99.90
4811;DHT22;2419;51.276;6.472;2022-12-29T12:05:20;11.70;99.90
4811;DHT22;2419;51.276;6.472;2022-12-29T12:07:56;11.70;99.90
4811;DHT22;2419;51.276;6.472;2022-12-29T12:10:29;11.60;99.90
4811;DHT22;2419;51.276;6.472;2022-12-29T12:13:04;11.50;99.90
4811;DHT22;2419;51.276;6.472;2022-12-29T12:15:37;11.50;99.90
4811;DHT22;2419;51.276;6.472;2022-12-29T12:18:17;11.60;99.90
4811;DHT22;2419;51.276;6.472;2022-12-29T12:20:50;11.50;99.90
4811;DHT22;2419;51.276;6.472;2022-12-29T12:23:40;11.40;99.90
4811;DHT22;2419;51.276;6.472;2022-12-29T12:26:12;11.40;99.90
4811;DHT22;2419;51.276;6.472;2022-12-29T12:28:48;11.40;99.90
4811;DHT22;2419;51.276;6.472;2022-12-29T12:31:32;11.50;99.90
4811;DHT22;2419;51.276;6.472;2022-12-29T12:34:10;11.40;99.90
4811;DHT22;2419;51.276;6.472;2022-12-29T12:36:53;11.40;99.90
4811;DHT22;2419;51.276;6.472;2022-12-29T12:39:33;11.50;99.90
4811;DHT22;2419;51.276;6.472;2022-12-29T12:42:16;11.50;99.90
4811;DHT22;2419;51.276;6.472;2022-12-29T12:44:54;11.50;99.90
4811;DHT22;2419;51.276;6.472;2022-12-29T12:47:34;11.50;99.90
4811;DHT22;2419;51.276;6.472;2022-12-29T12:50:30;11.50;99.90
4811;DHT22;2419;51.276;6.472;2022-12-29T12:53:22;11.50;99.90
4811;DHT22;2419;51.276;6.472;2022-12-29T12:56:17;11.50;99.90
4811;DHT22;2419;51.276;6.472;2022-12-29T12:58:54;11.50;99.90
4811;DHT22;2419;51.276;6.472;2022-12-29T13:01:32;11.50;99.90
4811;DHT22;2419;51.276;6.472;2022-12-29T13:04:28;11.50;99.90
4811;DHT22;2419;51.276;6.472;2022-12-29T13:07:07;11.50;99.90
4811;DHT22;2419;51.276;6.472;2022-12-29T13:09:48;11.50;99.90
4811;DHT22;2419;51.276;6.472;2022-12-29T13:12:30;11.50;99.90
4811;DHT22;2419;51.276;6.472;2022-12-29T13:15:12;11.50;99.90
4811;DHT22;2419;51.276;6.472;2022-12-29T13:17:47;11.50;99.90
4811;DHT22;2419;51.276;6.472;2022-12-29T13:20:28;11.50;99.90
4811;DHT22;2419;51.276;6.472;2022-12-29T13:23:04;11.60;99.90
4811;DHT22;2419;51.276;6.472;2022-12-29T13:25:39;11.50;99.90
4811;DHT22;2419;51.276;6.472;2022-12-29T13:28:19;11.50;99.90
4811;DHT22;2419;51.276;6.472;2022-12-29T13:30:55;11.50;99.90
4811;DHT22;2419;51.276;6.472;2022-12-29T13:33:31;11.60;99.90
4811;DHT22;2419;51.276;6.472;2022-12-29T13:36:06;11.50;99.90
4811;DHT22;2419;51.276;6.472;2022-12-29T13:38:40;11.50;99.90
4811;DHT22;2419;51.276;6.472;2022-12-29T13:41:14;11.50;99.90
4811;DHT22;2419;51.276;6.472;2022-12-29T13:43:47;11.50;99.90
4811;DHT22;2419;51.276;6.472;2022-12-29T13:46:22;11.40;99.90
4811;DHT22;2419;51.276;6.472;2022-12-29T13:48:54;11.30;99.90
4811;DHT22;2419;51.276;6.472;2022-12-29T13:51:23;11.30;99.90
4811;DHT22;2419;51.276;6.472;2022-12-29T13:54:07;11.30;99.90
4811;DHT22;2419;51.276;6.472;2022-12-29T13:56:40;11.30;99.90
4811;DHT22;2419;51.276;6.472;2022-12-29T13:59:18;11.30;99.90
4811;DHT22;2419;51.276;6.472;2022-12-29T14:01:53;11.30;99.90
4811;DHT22;2419;51.276;6.472;2022-12-29T14:04:25;11.30;99.90
4811;DHT22;2419;51.276;6.472;2022-12-29T14:07:02;11.30;99.90
4811;DHT22;2419;51.276;6.472;2022-12-29T14:09:45;11.20;99.90
4811;DHT22;2419;51.276;6.472;2022-12-29T14:12:30;11.20;99.90
4811;DHT22;2419;51.276;6.472;2022-12-29T14:15:22;11.20;99.90
4811;DHT22;2419;51.276;6.472;2022-12-29T14:18:04;11.20;99.90
4811;DHT22;2419;51.276;6.472;2022-12-29T14:20:38;11.30;99.90
4811;DHT22;2419;51.276;6.472;2022-12-29T14:23:27;11.20;99.90
4811;DHT22;2419;51.276;6.472;2022-12-29T14:26:09;11.20;99.90
4811;DHT22;2419;51.276;6.472;2022-12-29T14:28:40;11.20;99.90
4811;DHT22;2419;51.276;6.472;2022-12-29T14:31:34;11.20;99.90
4811;DHT22;2419;51.276;6.472;2022-12-29T14:34:30;11.20;99.90
4811;DHT22;2419;51.276;6.472;2022-12-29T14:36:59;11.10;99.90
4811;DHT22;2419;51.276;6.472;2022-12-29T14:39:36;11.10;99.90
4811;DHT22;2419;51.276;6.472;2022-12-29T14:42:10;11.10;99.90
4811;DHT22;2419;51.276;6.472;2022-12-29T14:44:47;11.10;99.90
4811;DHT22;2419;51.276;6.472;2022-12-29T14:47:20;11.00;99.90
4811;DHT22;2419;51.276;6.472;2022-12-29T14:49:49;11.00;99.90
4811;DHT22;2419;51.276;6.472;2022-12-29T14:52:21;11.00;99.90
4811;DHT22;2419;51.276;6.472;2022-12-29T14:54:52;11.00;99.90
4811;DHT22;2419;51.276;6.472;2022-12-29T14:57:26;11.00;99.90
4811;DHT22;2419;51.276;6.472;2022-12-29T15:00:00;11.00;99.90
4811;DHT22;2419;51.276;6.472;2022-12-29T15:02:35;11.00;99.90
4811;DHT22;2419;51.276;6.472;2022-12-29T15:05:23;10.90;99.90
4811;DHT22;2419;51.276;6.472;2022-12-29T15:07:53;10.90;99.90
4811;DHT22;2419;51.276;6.472;2022-12-29T15:10:23;10.90;99.90
4811;DHT22;2419;51.276;6.472;2022-12-29T15:12:53;10.80;99.90
4811;DHT22;2419;51.276;6.472;2022-12-29T15:15:25;10.80;99.90
4811;DHT22;2419;51.276;6.472;2022-12-29T15:17:55;10.80;99.90
4811;DHT22;2419;51.276;6.472;2022-12-29T15:20:26;10.80;99.90
4811;DHT22;2419;51.276;6.472;2022-12-29T15:22:56;10.70;99.90
4811;DHT22;2419;51.276;6.472;2022-12-29T15:25:25;10.80;99.90
4811;DHT22;2419;51.276;6.472;2022-12-29T15:27:58;10.70;99.90
4811;DHT22;2419;51.276;6.472;2022-12-29T15:30:28;10.60;99.90
4811;DHT22;2419;51.276;6.472;2022-12-29T15:32:58;10.60;99.90
4811;DHT22;2419;51.276;6.472;2022-12-29T15:35:30;10.50;99.90
4811;DHT22;2419;51.276;6.472;2022-12-29T15:37:59;10.40;99.90
4811;DHT22;2419;51.276;6.472;2022-12-29T15:40:31;10.40;99.90
4811;DHT22;2419;51.276;6.472;2022-12-29T15:43:21;10.30;99.90
4811;DHT22;2419;51.276;6.472;2022-12-29T15:45:51;10.30;99.90
4811;DHT22;2419;51.276;6.472;2022-12-29T15:48:24;10.30;99.90
4811;DHT22;2419;51.276;6.472;2022-12-29T15:50:53;10.30;99.90
4811;DHT22;2419;51.276;6.472;2022-12-29T15:53:23;10.20;99.90
4811;DHT22;2419;51.276;6.472;2022-12-29T15:55:57;10.20;99.90
4811;DHT22;2419;51.276;6.472;2022-12-29T15:58:30;10.20;99.90
4811;DHT22;2419;51.276;6.472;2022-12-29T16:01:00;10.10;99.90
4811;DHT22;2419;51.276;6.472;2022-12-29T16:03:33;10.10;99.90
4811;DHT22;2419;51.276;6.472;2022-12-29T16:06:08;10.00;99.90
4811;DHT22;2419;51.276;6.472;2022-12-29T16:08:40;10.00;99.90
4811;DHT22;2419;51.276;6.472;2022-12-29T16:11:20;10.00;99.90
4811;DHT22;2419;51.276;6.472;2022-12-29T16:13:52;9.90;99.90
4811;DHT22;2419;51.276;6.472;2022-12-29T16:16:23;9.90;99.90
4811;DHT22;2419;51.276;6.472;2022-12-29T16:18:55;9.90;99.90
4811;DHT22;2419;51.276;6.472;2022-12-29T16:21:27;10.00;99.90
4811;DHT22;2419;51.276;6.472;2022-12-29T16:23:59;10.00;99.90
4811;DHT22;2419;51.276;6.472;2022-12-29T16:26:28;10.00;99.90
4811;DHT22;2419;51.276;6.472;2022-12-29T16:28:58;10.10;99.90
4811;DHT22;2419;51.276;6.472;2022-12-29T16:31:34;10.10;99.90
4811;DHT22;2419;51.276;6.472;2022-12-29T16:34:19;10.20;99.90
4811;DHT22;2419;51.276;6.472;2022-12-29T16:36:54;10.30;99.90
4811;DHT22;2419;51.276;6.472;2022-12-29T16:39:33;10.30;99.90
4811;DHT22;2419;51.276;6.472;2022-12-29T16:42:34;10.30;99.90
4811;DHT22;2419;51.276;6.472;2022-12-29T16:48:33;10.20;99.90
4811;DHT22;2419;51.276;6.472;2022-12-29T16:51:05;10.20;99.90